Terminal Aerodrome Forecast
Issued by NWS Des Moines, IA

Home | Current Version | Previous Version | Text Only | Print | Product List | Glossary On
Versions: 1 2 3 4 5 6 7 8 9 10 11 12 13 14 15 16 17 18 19 20 21 22 23 24 25 26 27 28 29 30 31 32 33 34 35 36 37 38 39
000
FTUS43 KDMX 231125
TAFALO
TAF
KALO 231125Z 2312/2412 VRB06KT 5SM BR VCTS FEW010 SCT030CB OVC050
      TEMPO 2312/2314 3SM -TSRA BR SCT009 BKN022CB
     FM231500 13010KT P6SM FEW030 BKN120
     FM240000 13008KT P6SM SKC=

USA.gov is the U.S. government's official web portal to all federal, state and local government web resources and services.